createdAt,value
2023-05-15T00:01:59.451Z,78.10
2023-05-15T00:04:28.013Z,78.10
2023-05-15T00:06:56.836Z,78.20
2023-05-15T00:09:29.126Z,78.20
2023-05-15T00:11:58.675Z,78.20
2023-05-15T00:14:27.663Z,78.30
2023-05-15T00:16:57.606Z,78.40
2023-05-15T00:19:28.122Z,78.40
2023-05-15T00:21:58.834Z,78.60
2023-05-15T00:24:27.331Z,78.60
2023-05-15T00:26:56.352Z,78.60
2023-05-15T00:29:28.255Z,78.60
2023-05-15T00:31:56.868Z,78.70
2023-05-15T00:34:28.564Z,78.70
2023-05-15T00:36:57.288Z,78.60
2023-05-15T00:39:30.540Z,78.60
2023-05-15T00:42:01.970Z,78.60
2023-05-15T00:44:32.388Z,78.50
2023-05-15T00:47:02.254Z,78.40
2023-05-15T00:49:36.659Z,78.40
2023-05-15T00:52:08.459Z,78.50
2023-05-15T00:54:36.811Z,78.50
2023-05-15T00:57:08.539Z,78.60
2023-05-15T00:59:40.743Z,78.50
2023-05-15T01:02:11.138Z,78.70
2023-05-15T01:04:43.676Z,78.80
2023-05-15T01:07:13.186Z,78.70
2023-05-15T01:09:45.911Z,78.60
2023-05-15T01:12:17.228Z,78.60
2023-05-15T01:14:45.758Z,78.70
2023-05-15T01:17:14.060Z,78.80
2023-05-15T01:19:44.692Z,78.80
2023-05-15T01:22:43.404Z,78.90
2023-05-15T01:25:46.352Z,78.80
2023-05-15T01:28:23.841Z,78.80
2023-05-15T01:30:56.466Z,78.80
2023-05-15T01:33:30.956Z,78.80
2023-05-15T01:36:04.880Z,78.80
2023-05-15T01:38:40.444Z,78.80
2023-05-15T01:41:17.910Z,78.80
2023-05-15T01:43:55.717Z,78.80
2023-05-15T01:46:25.224Z,78.90
2023-05-15T01:48:54.959Z,78.80
2023-05-15T01:51:26.846Z,78.80
2023-05-15T01:53:58.971Z,78.90
2023-05-15T01:56:30.413Z,78.90
2023-05-15T01:59:04.416Z,78.90
2023-05-15T02:01:34.846Z,78.90
2023-05-15T02:04:05.119Z,78.90
2023-05-15T02:06:35.253Z,78.90
2023-05-15T02:09:06.432Z,78.90
2023-05-15T02:11:36.838Z,78.90
2023-05-15T02:14:13.429Z,79.00
2023-05-15T02:16:42.283Z,78.80
2023-05-15T02:19:11.131Z,78.90
2023-05-15T02:21:39.566Z,79.00
2023-05-15T02:24:08.878Z,78.90
2023-05-15T02:26:48.218Z,79.20
2023-05-15T02:29:21.410Z,79.00
2023-05-15T02:32:01.851Z,79.20
2023-05-15T02:34:41.128Z,79.20
2023-05-15T02:37:15.246Z,78.60
2023-05-15T02:39:46.574Z,78.60
2023-05-15T02:42:17.768Z,78.60
2023-05-15T02:44:50.312Z,78.50
2023-05-15T02:47:20.319Z,78.50
2023-05-15T02:49:49.864Z,78.50
2023-05-15T02:52:19.238Z,78.50
2023-05-15T02:54:48.484Z,78.60
2023-05-15T02:57:17.157Z,78.70
2023-05-15T02:59:46.168Z,78.70
2023-05-15T03:02:17.049Z,78.80
2023-05-15T03:04:47.105Z,78.80
2023-05-15T03:07:16.614Z,78.80
2023-05-15T03:09:45.260Z,78.70
2023-05-15T03:12:14.190Z,78.70
2023-05-15T03:14:43.067Z,78.60
2023-05-15T03:17:12.839Z,78.70
2023-05-15T03:19:44.743Z,78.50
2023-05-15T03:22:13.680Z,78.60
2023-05-15T03:24:42.280Z,78.60
2023-05-15T03:27:10.712Z,78.70
2023-05-15T03:29:41.100Z,78.70
2023-05-15T03:32:11.936Z,78.60
2023-05-15T03:34:41.206Z,78.60
2023-05-15T03:37:11.548Z,78.80
2023-05-15T03:39:39.829Z,78.80
2023-05-15T03:42:09.898Z,78.80
2023-05-15T03:44:39.602Z,78.70
2023-05-15T03:47:08.913Z,78.70
2023-05-15T03:49:37.335Z,78.60
2023-05-15T03:52:07.631Z,78.60
2023-05-15T03:54:38.383Z,78.50
2023-05-15T03:57:10.249Z,78.60
2023-05-15T03:59:39.792Z,78.50
2023-05-15T04:02:09.790Z,78.60
2023-05-15T04:04:38.765Z,78.60
2023-05-15T04:07:07.963Z,78.70
2023-05-15T04:09:39.581Z,78.50
2023-05-15T04:12:08.402Z,78.60
2023-05-15T04:14:36.919Z,78.60
2023-05-15T04:17:06.347Z,78.70
2023-05-15T04:19:34.749Z,78.60
2023-05-15T04:22:03.567Z,78.80
2023-05-15T04:24:32.300Z,79.50
2023-05-15T04:27:02.343Z,80.10
2023-05-15T04:29:30.771Z,80.50
2023-05-15T04:31:59.183Z,80.40
2023-05-15T04:34:30.837Z,79.70
2023-05-15T04:36:59.543Z,78.30
2023-05-15T04:39:28.228Z,78.00
2023-05-15T04:41:56.687Z,77.50
2023-05-15T04:44:27.656Z,77.00
2023-05-15T04:46:56.056Z,77.00
2023-05-15T04:49:27.660Z,77.20
2023-05-15T04:51:56.748Z,75.60
2023-05-15T04:54:25.437Z,75.00
2023-05-15T04:56:54.370Z,74.60
2023-05-15T04:59:25.234Z,73.70
2023-05-15T05:01:55.629Z,73.40
2023-05-15T05:04:24.360Z,73.20
2023-05-15T05:06:54.060Z,72.70
2023-05-15T05:09:23.059Z,72.20
2023-05-15T05:11:53.405Z,72.30
2023-05-15T05:14:23.682Z,72.90
2023-05-15T05:16:52.354Z,73.20
2023-05-15T05:19:22.316Z,73.80
2023-05-15T05:21:52.538Z,73.80
2023-05-15T05:24:21.064Z,73.00
2023-05-15T05:26:50.245Z,72.50
2023-05-15T05:29:18.545Z,71.80
2023-05-15T05:31:48.916Z,71.60
2023-05-15T05:34:17.834Z,69.90
2023-05-15T05:36:47.780Z,69.00
2023-05-15T05:39:16.641Z,68.30
2023-05-15T05:41:45.819Z,66.70
2023-05-15T05:44:14.537Z,66.30
2023-05-15T05:46:43.892Z,66.00
2023-05-15T05:49:12.865Z,65.50
2023-05-15T05:51:41.265Z,65.10
2023-05-15T05:54:11.450Z,63.90
2023-05-15T05:56:40.578Z,64.00
2023-05-15T05:59:09.973Z,65.80
2023-05-15T06:01:38.700Z,66.30
2023-05-15T06:04:08.286Z,65.80
2023-05-15T06:06:36.668Z,64.30
2023-05-15T06:09:05.678Z,64.30
2023-05-15T06:11:36.420Z,64.90
2023-05-15T06:14:05.099Z,65.90
2023-05-15T06:16:33.955Z,64.20
2023-05-15T06:19:02.399Z,63.10
2023-05-15T06:21:31.006Z,61.10
2023-05-15T06:24:01.367Z,60.00
2023-05-15T06:26:31.444Z,61.70
2023-05-15T06:29:04.084Z,60.60
2023-05-15T06:31:32.597Z,61.20
2023-05-15T06:34:01.076Z,61.00
2023-05-15T06:36:30.414Z,59.30
2023-05-15T06:38:58.760Z,56.20
2023-05-15T06:41:27.576Z,57.30
2023-05-15T06:43:56.677Z,56.20
2023-05-15T06:46:27.228Z,54.90
2023-05-15T06:48:57.619Z,54.30
2023-05-15T06:51:25.955Z,54.30
2023-05-15T06:53:54.033Z,53.40
2023-05-15T06:56:24.169Z,53.50
2023-05-15T06:58:52.539Z,53.40
2023-05-15T07:01:20.620Z,53.40
2023-05-15T07:03:50.871Z,52.80
2023-05-15T07:06:19.523Z,52.20
2023-05-15T07:08:48.202Z,53.00
2023-05-15T07:11:16.873Z,52.20
2023-05-15T07:13:45.593Z,52.90
2023-05-15T07:16:15.158Z,51.60
2023-05-15T07:18:43.881Z,51.90
2023-05-15T07:21:13.870Z,51.60
2023-05-15T07:23:42.619Z,50.90
2023-05-15T07:26:16.860Z,50.20
2023-05-15T07:28:48.686Z,49.80
2023-05-15T07:31:20.339Z,48.40
2023-05-15T07:33:48.766Z,47.50
2023-05-15T07:36:19.200Z,46.00
2023-05-15T07:38:47.950Z,46.10
2023-05-15T07:41:16.830Z,44.70
2023-05-15T07:43:45.138Z,45.10
2023-05-15T07:46:15.354Z,45.90
2023-05-15T07:48:44.299Z,44.80
2023-05-15T07:51:13.705Z,44.00
2023-05-15T07:53:43.664Z,42.70
2023-05-15T07:56:12.511Z,41.40
2023-05-15T07:58:41.060Z,42.00
2023-05-15T08:01:09.615Z,41.70
2023-05-15T08:03:38.001Z,42.30
2023-05-15T08:06:08.490Z,43.50
2023-05-15T08:08:37.277Z,43.10
2023-05-15T08:11:09.582Z,42.70
2023-05-15T08:13:39.202Z,41.10
2023-05-15T08:16:07.843Z,42.20
2023-05-15T08:18:37.111Z,42.30
2023-05-15T08:21:05.670Z,42.50
2023-05-15T08:23:34.285Z,43.50
2023-05-15T08:26:03.445Z,44.90
2023-05-15T08:28:33.711Z,44.90
2023-05-15T08:31:02.622Z,45.20
2023-05-15T08:33:31.214Z,45.00
2023-05-15T08:35:59.836Z,45.10
2023-05-15T08:38:31.398Z,44.40
2023-05-15T08:41:04.788Z,44.80
2023-05-15T08:43:39.106Z,43.90
2023-05-15T08:46:08.924Z,43.10
2023-05-15T08:48:41.746Z,43.30
2023-05-15T08:51:11.836Z,43.30
2023-05-15T08:53:41.374Z,41.70
2023-05-15T08:56:11.348Z,41.20
2023-05-15T08:58:44.029Z,40.90
2023-05-15T09:01:16.803Z,41.90
2023-05-15T09:03:45.944Z,41.80
2023-05-15T09:06:15.442Z,40.70
2023-05-15T09:08:47.478Z,41.10
2023-05-15T09:11:17.014Z,40.00
2023-05-15T09:13:50.730Z,40.00
2023-05-15T09:16:21.265Z,39.70
2023-05-15T09:18:51.767Z,40.00
2023-05-15T09:21:33.815Z,41.50
2023-05-15T09:24:18.100Z,40.60
2023-05-15T09:26:49.292Z,42.30
2023-05-15T09:29:20.049Z,40.90
2023-05-15T09:31:49.709Z,40.40
2023-05-15T09:34:19.041Z,39.60
2023-05-15T09:36:47.718Z,38.40
2023-05-15T09:39:25.223Z,36.90
2023-05-15T09:41:54.701Z,36.30
2023-05-15T09:44:30.389Z,37.00
2023-05-15T09:47:00.207Z,38.00
2023-05-15T09:49:32.017Z,38.80
2023-05-15T09:52:02.592Z,39.80
2023-05-15T09:54:33.573Z,39.10
2023-05-15T09:57:10.760Z,36.80
2023-05-15T09:59:46.702Z,36.90
2023-05-15T10:02:54.549Z,38.00
2023-05-15T10:05:35.282Z,38.40
2023-05-15T10:08:11.693Z,38.00
2023-05-15T10:10:43.460Z,36.60
2023-05-15T10:13:18.349Z,35.00
2023-05-15T10:15:50.643Z,35.60
2023-05-15T10:18:25.035Z,35.80
2023-05-15T10:20:55.797Z,35.00
2023-05-15T10:26:22.876Z,35.30
2023-05-15T10:28:55.477Z,35.60
2023-05-15T10:31:26.799Z,36.40
2023-05-15T10:33:57.813Z,38.30
2023-05-15T10:36:27.298Z,40.50
2023-05-15T10:38:56.371Z,42.80
2023-05-15T10:41:28.843Z,45.00
2023-05-15T10:44:00.628Z,46.30
2023-05-15T10:46:33.559Z,48.90
2023-05-15T10:49:03.494Z,50.10
2023-05-15T10:51:36.351Z,50.40
2023-05-15T10:54:07.472Z,51.10
2023-05-15T10:56:39.696Z,52.30
2023-05-15T10:59:09.876Z,53.70
2023-05-15T11:01:43.291Z,55.60
2023-05-15T11:04:13.873Z,56.60
2023-05-15T11:06:43.962Z,55.60
2023-05-15T11:09:36.678Z,56.20
2023-05-15T11:12:07.793Z,55.90
2023-05-15T11:14:38.686Z,55.90
2023-05-15T11:17:10.903Z,55.20
2023-05-15T11:20:00.793Z,58.70
2023-05-15T11:22:32.330Z,59.00
2023-05-15T11:25:02.833Z,57.20
2023-05-15T11:27:35.310Z,59.10
2023-05-15T11:30:16.258Z,58.80
2023-05-15T11:32:54.776Z,60.60
2023-05-15T11:35:28.892Z,60.20
2023-05-15T11:37:59.176Z,60.10
2023-05-15T11:40:31.100Z,61.00
2023-05-15T11:43:07.690Z,60.70
2023-05-15T11:45:38.212Z,58.10
2023-05-15T11:48:15.162Z,58.60
2023-05-15T11:50:49.946Z,56.60
2023-05-15T11:53:20.422Z,58.70
2023-05-15T11:55:52.014Z,58.00
2023-05-15T11:58:25.921Z,59.90
2023-05-15T12:00:55.789Z,58.90
2023-05-15T12:03:28.802Z,58.80
2023-05-15T12:06:00.844Z,54.90
2023-05-15T12:08:34.302Z,51.90
2023-05-15T12:11:03.407Z,50.50
2023-05-15T12:13:32.991Z,50.40
2023-05-15T12:16:03.866Z,49.10
2023-05-15T12:18:38.705Z,48.00
2023-05-15T12:21:08.412Z,47.30
2023-05-15T12:23:36.604Z,46.20
2023-05-15T12:26:06.446Z,45.20
2023-05-15T12:28:37.777Z,44.50
2023-05-15T12:31:07.503Z,42.20
2023-05-15T12:33:38.340Z,41.60
2023-05-15T12:36:09.028Z,38.30
2023-05-15T12:38:41.481Z,36.70
2023-05-15T12:41:13.556Z,35.20
2023-05-15T12:43:43.577Z,35.10
2023-05-15T12:46:15.301Z,33.20
2023-05-15T12:48:46.083Z,32.20
2023-05-15T12:51:18.870Z,31.90
2023-05-15T12:53:49.002Z,32.00
2023-05-15T12:56:17.938Z,32.00
2023-05-15T12:58:48.940Z,32.00
2023-05-15T13:01:23.645Z,32.70
2023-05-15T13:03:56.728Z,33.40
2023-05-15T13:06:34.776Z,33.10
2023-05-15T13:09:24.283Z,33.80
2023-05-15T13:11:56.367Z,38.10
2023-05-15T13:14:29.577Z,41.90
2023-05-15T13:17:02.950Z,43.10
2023-05-15T13:19:35.793Z,44.80
2023-05-15T13:22:05.954Z,46.20
2023-05-15T13:24:34.568Z,47.10
2023-05-15T13:27:03.724Z,48.30
2023-05-15T13:29:34.810Z,48.90
2023-05-15T13:32:05.472Z,49.40
2023-05-15T13:34:38.004Z,49.20
2023-05-15T13:37:06.557Z,47.60
2023-05-15T13:39:36.700Z,47.30
2023-05-15T13:42:05.901Z,46.00
2023-05-15T13:44:35.824Z,44.30
2023-05-15T13:47:07.204Z,45.90
2023-05-15T13:49:39.632Z,47.20
2023-05-15T13:52:08.973Z,47.90
2023-05-15T13:54:37.880Z,50.70
2023-05-15T13:57:07.105Z,52.10
2023-05-15T13:59:35.598Z,58.00
2023-05-15T14:02:06.643Z,68.80
2023-05-15T14:04:38.449Z,70.80
2023-05-15T14:07:07.406Z,71.10
2023-05-15T14:09:39.092Z,72.40
2023-05-15T14:12:07.859Z,73.20
2023-05-15T14:14:36.329Z,71.70
2023-05-15T14:17:04.813Z,71.70
2023-05-15T14:19:33.613Z,73.30
2023-05-15T14:22:03.819Z,73.00
2023-05-15T14:24:34.167Z,74.00
2023-05-15T14:27:02.978Z,73.60
2023-05-15T14:29:31.340Z,73.00
2023-05-15T14:31:59.671Z,73.20
2023-05-15T14:34:28.672Z,73.70
2023-05-15T14:36:56.904Z,73.00
2023-05-15T14:39:28.321Z,72.50
2023-05-15T14:41:56.734Z,72.50
2023-05-15T14:44:25.603Z,71.80
2023-05-15T14:47:08.051Z,71.60
2023-05-15T14:49:36.502Z,71.00
2023-05-15T14:52:07.304Z,70.60
2023-05-15T14:54:39.216Z,71.20
2023-05-15T14:57:08.803Z,70.30
2023-05-15T14:59:37.215Z,71.10
2023-05-15T15:02:06.173Z,70.50
2023-05-15T15:04:35.062Z,70.00
2023-05-15T15:07:06.587Z,69.00
2023-05-15T15:09:36.580Z,70.00
2023-05-15T15:12:05.425Z,69.50
2023-05-15T15:14:34.020Z,69.40
2023-05-15T15:17:03.723Z,68.40
2023-05-15T15:19:32.324Z,68.70
2023-05-15T15:22:01.208Z,68.80
2023-05-15T15:24:30.190Z,69.40
2023-05-15T15:27:04.638Z,69.50
2023-05-15T15:29:33.224Z,69.60
2023-05-15T15:32:07.108Z,68.80
2023-05-15T15:34:36.657Z,68.40
2023-05-15T15:37:06.083Z,69.00
2023-05-15T15:39:35.764Z,69.00
2023-05-15T15:42:06.679Z,68.90
2023-05-15T15:44:37.761Z,69.00
2023-05-15T15:47:07.531Z,68.60
2023-05-15T15:49:36.678Z,68.80
2023-05-15T15:52:05.774Z,69.60
2023-05-15T15:54:34.550Z,69.40
2023-05-15T15:57:03.804Z,69.50
2023-05-15T15:59:34.922Z,70.00
2023-05-15T16:02:07.104Z,69.90
2023-05-15T16:04:36.862Z,70.10
2023-05-15T16:07:06.931Z,69.80
2023-05-15T16:09:36.143Z,70.00
2023-05-15T16:12:05.959Z,69.90
2023-05-15T16:14:39.242Z,69.30
2023-05-15T16:17:09.669Z,69.30
2023-05-15T16:19:40.387Z,69.50
2023-05-15T16:22:08.960Z,69.30
2023-05-15T16:24:37.506Z,68.60
2023-05-15T16:27:06.848Z,68.40
2023-05-15T16:29:38.372Z,68.30
2023-05-15T16:32:07.835Z,69.00
2023-05-15T16:34:37.217Z,69.30
2023-05-15T16:37:06.970Z,69.50
2023-05-15T16:39:40.121Z,69.20
2023-05-15T16:42:09.780Z,69.20
2023-05-15T16:44:39.391Z,69.30
2023-05-15T16:47:08.769Z,69.20
2023-05-15T16:49:37.654Z,69.30
2023-05-15T16:52:06.988Z,69.10
2023-05-15T16:54:38.419Z,69.40
2023-05-15T16:57:07.497Z,68.10
2023-05-15T16:59:36.051Z,67.90
2023-05-15T17:02:08.927Z,68.30
2023-05-15T17:04:37.730Z,68.30
2023-05-15T17:07:07.399Z,68.50
2023-05-15T17:09:38.296Z,68.40
2023-05-15T17:12:07.733Z,68.30
2023-05-15T17:14:36.867Z,68.00
2023-05-15T17:17:07.822Z,68.50
2023-05-15T17:19:36.652Z,68.00
2023-05-15T17:22:05.553Z,68.20
2023-05-15T17:24:49.940Z,68.30
2023-05-15T17:27:21.967Z,68.50
2023-05-15T17:29:51.050Z,67.80
2023-05-15T17:32:21.590Z,67.30
2023-05-15T17:34:51.520Z,66.70
2023-05-15T17:37:20.569Z,65.80
2023-05-15T17:39:51.754Z,65.40
2023-05-15T17:42:20.055Z,66.30
2023-05-15T17:44:49.521Z,65.80
2023-05-15T17:47:22.284Z,65.30
2023-05-15T17:49:52.984Z,63.70
2023-05-15T17:52:22.102Z,64.50
2023-05-15T17:54:53.078Z,64.70
2023-05-15T17:57:21.975Z,64.10
2023-05-15T17:59:51.800Z,65.10
2023-05-15T18:02:22.941Z,65.10
2023-05-15T18:04:52.209Z,65.80
2023-05-15T18:07:21.195Z,66.50
2023-05-15T18:09:49.832Z,66.80
2023-05-15T18:12:19.183Z,67.40
2023-05-15T18:14:48.762Z,67.70
2023-05-15T18:17:20.403Z,67.90
2023-05-15T18:19:50.514Z,68.80
2023-05-15T18:22:20.263Z,69.60
2023-05-15T18:24:51.593Z,69.90
2023-05-15T18:27:20.523Z,70.20
2023-05-15T18:29:50.253Z,70.30
2023-05-15T18:32:21.771Z,71.00
2023-05-15T18:34:51.676Z,71.30
2023-05-15T18:37:22.458Z,71.50
2023-05-15T18:39:51.630Z,71.90
2023-05-15T18:42:19.972Z,71.90
2023-05-15T18:44:48.108Z,72.10
2023-05-15T18:47:16.864Z,72.10
2023-05-15T18:49:45.203Z,72.20
2023-05-15T18:52:15.131Z,72.40
2023-05-15T18:54:44.502Z,72.60
2023-05-15T18:57:17.910Z,72.80
2023-05-15T18:59:50.466Z,72.80
2023-05-15T19:02:21.021Z,72.90
2023-05-15T19:04:50.265Z,73.10
2023-05-15T19:07:24.179Z,73.30
2023-05-15T19:09:54.135Z,73.30
2023-05-15T19:12:22.910Z,73.40
2023-05-15T19:14:52.855Z,73.50
2023-05-15T19:17:24.425Z,73.50
2023-05-15T19:19:54.861Z,73.70
2023-05-15T19:22:24.802Z,73.80
2023-05-15T19:24:53.513Z,74.00
2023-05-15T19:27:22.688Z,74.10
2023-05-15T19:29:54.181Z,74.20
2023-05-15T19:32:23.029Z,74.30
2023-05-15T19:34:52.244Z,74.20
2023-05-15T19:37:21.254Z,74.20
2023-05-15T19:39:54.082Z,74.20
2023-05-15T19:42:23.587Z,74.40
2023-05-15T19:44:53.179Z,74.30
2023-05-15T19:47:22.809Z,74.20
2023-05-15T19:49:53.061Z,74.00
2023-05-15T19:52:23.027Z,73.90
2023-05-15T19:54:54.556Z,73.80
2023-05-15T19:57:24.936Z,73.70
2023-05-15T19:59:54.501Z,73.80
2023-05-15T20:02:23.310Z,74.00
2023-05-15T20:04:53.198Z,74.10
2023-05-15T20:07:21.905Z,74.00
2023-05-15T20:09:51.482Z,74.00
2023-05-15T20:12:23.475Z,74.10
2023-05-15T20:14:53.698Z,74.20
2023-05-15T20:17:28.472Z,74.10
2023-05-15T20:19:59.157Z,74.20
2023-05-15T20:22:28.737Z,74.30
2023-05-15T20:24:57.768Z,74.10
2023-05-15T20:27:31.462Z,74.20
2023-05-15T20:30:04.892Z,74.10
2023-05-15T20:32:34.761Z,74.20
2023-05-15T20:35:03.960Z,74.30
2023-05-15T20:37:33.769Z,74.20
2023-05-15T20:40:05.524Z,74.30
2023-05-15T20:42:36.893Z,74.30
2023-05-15T20:45:06.661Z,74.30
2023-05-15T20:47:35.973Z,74.40
2023-05-15T20:50:05.161Z,74.20
2023-05-15T20:52:36.849Z,74.10
2023-05-15T20:55:16.724Z,74.00
2023-05-15T20:57:50.290Z,74.10
2023-05-15T21:00:19.636Z,74.10
2023-05-15T21:02:49.122Z,74.00
2023-05-15T21:05:25.377Z,74.10
2023-05-15T21:07:55.271Z,74.10
2023-05-15T21:10:28.440Z,74.10
2023-05-15T21:12:59.841Z,74.20
2023-05-15T21:15:32.832Z,74.20
2023-05-15T21:18:02.769Z,74.10
2023-05-15T21:20:32.949Z,74.10
2023-05-15T21:23:03.896Z,74.20
2023-05-15T21:25:37.820Z,74.20
2023-05-15T21:28:09.286Z,74.10
2023-05-15T21:30:38.322Z,74.10
2023-05-15T21:33:08.142Z,74.20
2023-05-15T21:35:37.209Z,74.20
2023-05-15T21:38:07.717Z,74.20
2023-05-15T21:40:37.022Z,74.20
2023-05-15T21:43:05.644Z,74.20
2023-05-15T21:45:36.677Z,74.20
2023-05-15T21:48:07.357Z,74.20
2023-05-15T21:50:41.209Z,74.30
2023-05-15T21:53:10.012Z,74.30
2023-05-15T21:55:39.880Z,74.30
2023-05-15T21:58:13.757Z,74.40
2023-05-15T22:00:46.362Z,74.30
2023-05-15T22:03:16.821Z,74.30
2023-05-15T22:05:50.134Z,74.30
2023-05-15T22:08:19.237Z,74.30
2023-05-15T22:10:48.459Z,74.30
2023-05-15T22:13:17.504Z,74.30
2023-05-15T22:15:47.321Z,74.20
2023-05-15T22:18:16.209Z,74.30
2023-05-15T22:20:46.129Z,74.40
2023-05-15T22:23:15.459Z,74.40
2023-05-15T22:25:54.372Z,74.30
2023-05-15T22:28:25.471Z,74.30
2023-05-15T22:31:02.308Z,74.30
2023-05-15T22:33:31.930Z,74.40
2023-05-15T22:36:05.994Z,74.30
2023-05-15T22:38:36.011Z,74.40
2023-05-15T22:41:04.649Z,74.50
2023-05-15T22:43:34.414Z,74.40
2023-05-15T22:46:04.736Z,74.40
2023-05-15T22:48:34.480Z,74.40
2023-05-15T22:51:03.157Z,74.50
2023-05-15T22:53:31.820Z,74.50
2023-05-15T22:56:00.358Z,74.50
2023-05-15T22:58:29.595Z,74.70
2023-05-15T23:00:58.027Z,74.50
2023-05-15T23:03:28.535Z,74.50
2023-05-15T23:05:57.204Z,74.80
2023-05-15T23:08:25.516Z,74.80
2023-05-15T23:10:56.501Z,74.70
2023-05-15T23:13:25.083Z,74.80
2023-05-15T23:15:53.654Z,74.90
2023-05-15T23:18:28.865Z,74.90
2023-05-15T23:21:00.940Z,74.90
2023-05-15T23:23:29.817Z,74.90
2023-05-15T23:25:58.109Z,74.90
2023-05-15T23:28:26.789Z,74.90
2023-05-15T23:30:55.311Z,74.90
2023-05-15T23:33:25.331Z,74.80
2023-05-15T23:35:55.508Z,74.90
2023-05-15T23:38:26.208Z,74.90
2023-05-15T23:40:54.170Z,75.00
2023-05-15T23:43:22.479Z,74.90
2023-05-15T23:45:50.759Z,74.90
2023-05-15T23:48:19.787Z,75.00
2023-05-15T23:50:51.717Z,75.00
2023-05-15T23:53:20.861Z,75.10
2023-05-15T23:55:51.765Z,75.20
2023-05-15T23:58:20.086Z,75.30
